createdAt,value
2023-05-25T00:01:30.891Z,8.25
2023-05-25T00:04:00.651Z,8.38
2023-05-25T00:06:30.026Z,9.10
2023-05-25T00:08:58.155Z,8.75
2023-05-25T00:11:27.942Z,8.48
2023-05-25T00:13:56.047Z,7.80
2023-05-25T00:16:24.032Z,8.82
2023-05-25T00:18:53.199Z,8.57
2023-05-25T00:21:21.049Z,8.20
2023-05-25T00:23:48.994Z,8.88
2023-05-25T00:26:16.811Z,8.70
2023-05-25T00:28:46.030Z,8.68
2023-05-25T00:31:14.035Z,8.18
2023-05-25T00:33:42.025Z,7.35
2023-05-25T00:36:10.002Z,8.10
2023-05-25T00:38:37.904Z,8.13
2023-05-25T00:41:06.975Z,7.80
2023-05-25T00:43:34.856Z,8.82
2023-05-25T00:46:04.389Z,8.50
2023-05-25T00:48:33.048Z,8.98
2023-05-25T00:51:01.571Z,8.80
2023-05-25T00:53:29.428Z,7.95
2023-05-25T00:56:09.500Z,8.70
2023-05-25T00:58:41.207Z,8.05
2023-05-25T01:01:12.097Z,7.68
2023-05-25T01:03:45.778Z,8.15
2023-05-25T01:06:16.020Z,8.20
2023-05-25T01:08:48.364Z,9.00
2023-05-25T01:11:18.472Z,8.07
2023-05-25T01:13:47.083Z,9.07
2023-05-25T01:16:17.098Z,8.85
2023-05-25T01:18:45.058Z,8.00
2023-05-25T01:21:22.059Z,8.65
2023-05-25T01:23:57.313Z,8.52
2023-05-25T01:26:28.380Z,7.82
2023-05-25T01:28:59.124Z,9.32
2023-05-25T01:31:27.799Z,7.65
2023-05-25T01:33:56.994Z,8.38
2023-05-25T01:36:26.934Z,7.57
2023-05-25T01:38:55.028Z,8.85
2023-05-25T01:41:22.814Z,8.75
2023-05-25T01:43:51.388Z,8.57
2023-05-25T01:46:28.224Z,8.85
2023-05-25T01:49:04.066Z,8.65
2023-05-25T01:51:40.465Z,8.50
2023-05-25T01:54:13.194Z,7.97
2023-05-25T01:56:42.849Z,8.63
2023-05-25T01:59:11.943Z,9.30
2023-05-25T02:01:41.993Z,8.25
2023-05-25T02:04:10.394Z,8.35
2023-05-25T02:06:39.830Z,7.85
2023-05-25T02:09:07.920Z,9.40
2023-05-25T02:11:35.818Z,10.23
2023-05-25T02:14:03.730Z,10.90
2023-05-25T02:16:31.621Z,12.57
2023-05-25T02:19:01.081Z,12.40
2023-05-25T02:21:28.926Z,13.52
2023-05-25T02:23:58.452Z,13.23
2023-05-25T02:26:26.459Z,13.85
2023-05-25T02:28:54.488Z,13.20
2023-05-25T02:31:22.821Z,13.00
2023-05-25T02:33:50.710Z,13.95
2023-05-25T02:36:21.089Z,14.73
2023-05-25T02:38:49.921Z,14.30
2023-05-25T02:41:21.305Z,15.38
2023-05-25T02:43:49.270Z,17.13
2023-05-25T02:46:17.214Z,15.88
2023-05-25T02:48:45.092Z,17.85
2023-05-25T02:51:13.078Z,16.20
2023-05-25T02:53:41.017Z,15.93
2023-05-25T02:56:10.328Z,13.85
2023-05-25T02:58:39.818Z,13.57
2023-05-25T03:01:18.772Z,13.48
2023-05-25T03:03:53.471Z,13.52
2023-05-25T03:06:26.154Z,14.85
2023-05-25T03:09:00.297Z,14.00
2023-05-25T03:11:28.597Z,15.05
2023-05-25T03:14:00.223Z,14.32
2023-05-25T03:16:30.271Z,14.65
2023-05-25T03:18:59.202Z,14.15
2023-05-25T03:21:27.746Z,14.45
2023-05-25T03:23:55.677Z,14.40
2023-05-25T03:26:25.931Z,15.32
2023-05-25T03:28:54.930Z,14.30
2023-05-25T03:31:24.430Z,15.45
2023-05-25T03:33:52.456Z,14.20
2023-05-25T03:36:22.629Z,16.08
2023-05-25T03:38:50.668Z,15.30
2023-05-25T03:41:18.565Z,14.93
2023-05-25T03:43:46.472Z,15.30
2023-05-25T03:46:14.665Z,14.13
2023-05-25T03:48:45.693Z,15.15
2023-05-25T03:51:13.698Z,14.30
2023-05-25T03:53:41.632Z,14.60
2023-05-25T03:56:09.614Z,14.38
2023-05-25T03:58:38.940Z,14.70
2023-05-25T04:01:06.808Z,14.45
2023-05-25T04:03:34.878Z,13.95
2023-05-25T04:06:04.592Z,12.43
2023-05-25T04:08:32.409Z,14.38
2023-05-25T04:11:00.259Z,13.45
2023-05-25T04:13:29.455Z,13.85
2023-05-25T04:15:57.436Z,14.73
2023-05-25T04:18:30.681Z,14.43
2023-05-25T04:21:01.285Z,15.63
2023-05-25T04:23:31.301Z,14.18
2023-05-25T04:25:59.957Z,13.90
2023-05-25T04:28:28.264Z,15.00
2023-05-25T04:31:00.736Z,13.68
2023-05-25T04:33:56.122Z,14.65
2023-05-25T04:36:32.745Z,14.10
2023-05-25T04:39:04.306Z,13.65
2023-05-25T04:41:34.925Z,14.35
2023-05-25T04:44:10.156Z,15.35
2023-05-25T04:46:50.776Z,14.45
2023-05-25T04:49:25.068Z,14.38
2023-05-25T04:51:53.089Z,14.80
2023-05-25T04:54:22.854Z,13.88
2023-05-25T04:56:50.709Z,14.43
2023-05-25T04:59:18.582Z,13.88
2023-05-25T05:01:46.952Z,12.60
2023-05-25T05:04:18.013Z,13.55
2023-05-25T05:06:46.381Z,14.07
2023-05-25T05:09:22.036Z,14.10
2023-05-25T05:11:50.168Z,13.15
2023-05-25T05:14:19.536Z,14.33
2023-05-25T05:16:48.673Z,14.15
2023-05-25T05:19:16.868Z,15.13
2023-05-25T05:21:45.018Z,13.30
2023-05-25T05:24:13.729Z,14.35
2023-05-25T05:26:56.204Z,15.10
2023-05-25T05:29:34.862Z,14.57
2023-05-25T05:32:03.014Z,13.95
2023-05-25T05:34:31.626Z,15.80
2023-05-25T05:37:03.529Z,14.07
2023-05-25T05:39:31.513Z,14.73
2023-05-25T05:42:01.423Z,15.65
2023-05-25T05:44:29.804Z,15.15
2023-05-25T05:47:01.691Z,14.57
2023-05-25T05:49:31.472Z,13.05
2023-05-25T05:52:00.884Z,14.23
2023-05-25T05:54:28.908Z,14.95
2023-05-25T05:57:02.391Z,14.85
2023-05-25T05:59:30.411Z,15.55
2023-05-25T06:01:58.413Z,15.02
2023-05-25T06:04:28.832Z,13.88
2023-05-25T06:06:57.558Z,13.30
2023-05-25T06:09:26.430Z,14.52
2023-05-25T06:11:54.933Z,13.02
2023-05-25T06:14:26.052Z,13.57
2023-05-25T06:16:55.904Z,13.95
2023-05-25T06:21:53.707Z,12.27
2023-05-25T06:24:22.445Z,12.43
2023-05-25T06:26:50.886Z,12.85
2023-05-25T06:29:19.644Z,12.18
2023-05-25T06:31:49.000Z,13.32
2023-05-25T06:34:16.934Z,11.53
2023-05-25T06:36:44.715Z,11.98
2023-05-25T06:39:12.597Z,12.55
2023-05-25T06:41:41.613Z,12.20
2023-05-25T06:44:09.599Z,12.45
2023-05-25T06:46:42.770Z,13.35
2023-05-25T06:49:12.323Z,12.27
2023-05-25T06:51:40.240Z,12.37
2023-05-25T06:54:09.325Z,11.10
2023-05-25T06:56:37.248Z,11.10
2023-05-25T06:59:05.113Z,10.13
2023-05-25T07:01:32.923Z,9.85
2023-05-25T07:04:00.970Z,9.48
2023-05-25T07:06:30.135Z,10.57
2023-05-25T07:08:58.005Z,9.98
2023-05-25T07:11:25.957Z,9.68
2023-05-25T07:13:53.859Z,10.20
2023-05-25T07:16:21.689Z,10.63
2023-05-25T07:18:49.592Z,10.55
2023-05-25T07:21:17.821Z,10.55
2023-05-25T07:23:46.985Z,9.30
2023-05-25T07:26:15.136Z,9.73
2023-05-25T07:28:42.980Z,10.32
2023-05-25T07:31:11.974Z,10.57
2023-05-25T07:33:39.864Z,9.45
2023-05-25T07:36:08.359Z,10.05
2023-05-25T07:38:36.231Z,9.15
2023-05-25T07:41:05.604Z,10.23
2023-05-25T07:43:33.605Z,10.13
2023-05-25T07:46:02.398Z,10.38
2023-05-25T07:48:30.259Z,10.70
2023-05-25T07:50:58.341Z,10.23
2023-05-25T07:53:26.501Z,9.13
2023-05-25T07:55:54.361Z,9.73
2023-05-25T07:58:23.687Z,9.05
2023-05-25T08:00:51.798Z,11.48
2023-05-25T08:03:26.172Z,8.98
2023-05-25T08:08:27.751Z,9.35
2023-05-25T08:10:55.623Z,10.32
2023-05-25T08:13:24.833Z,10.85
2023-05-25T08:15:52.699Z,10.45
2023-05-25T08:18:20.895Z,9.95
2023-05-25T08:20:48.838Z,10.27
2023-05-25T08:23:17.913Z,10.18
2023-05-25T08:25:46.128Z,9.88
2023-05-25T08:28:14.110Z,10.82
2023-05-25T08:30:43.773Z,10.32
2023-05-25T08:33:11.739Z,9.13
2023-05-25T08:35:42.852Z,9.13
2023-05-25T08:38:10.962Z,9.60
2023-05-25T08:40:42.833Z,10.02
2023-05-25T08:43:10.823Z,10.32
2023-05-25T08:45:41.959Z,10.45
2023-05-25T08:48:35.642Z,11.23
2023-05-25T08:51:10.869Z,10.90
2023-05-25T08:53:41.180Z,10.77
2023-05-25T08:56:14.664Z,10.57
2023-05-25T08:58:46.704Z,10.50
2023-05-25T09:01:19.402Z,10.85
2023-05-25T09:03:50.267Z,10.65
2023-05-25T09:06:18.688Z,10.40
2023-05-25T09:08:47.636Z,10.40
2023-05-25T09:11:17.736Z,10.23
2023-05-25T09:13:54.841Z,10.13
2023-05-25T09:16:24.335Z,10.40
2023-05-25T09:18:53.681Z,10.27
2023-05-25T09:21:21.576Z,9.60
2023-05-25T09:23:50.237Z,9.68
2023-05-25T09:26:18.064Z,9.32
2023-05-25T09:28:47.439Z,10.35
2023-05-25T09:31:16.108Z,10.33
2023-05-25T09:33:46.950Z,10.57
2023-05-25T09:36:17.956Z,10.40
2023-05-25T09:38:46.970Z,9.73
2023-05-25T09:41:16.401Z,9.82
2023-05-25T09:43:51.749Z,10.57
2023-05-25T09:46:29.900Z,9.98
2023-05-25T09:48:58.007Z,10.68
2023-05-25T09:51:27.743Z,10.63
2023-05-25T09:53:55.659Z,11.15
2023-05-25T09:56:24.701Z,9.88
2023-05-25T09:58:53.309Z,10.73
2023-05-25T10:01:21.209Z,9.95
2023-05-25T10:04:02.740Z,10.90
2023-05-25T10:06:34.308Z,12.25
2023-05-25T10:11:30.627Z,11.60
2023-05-25T10:14:03.826Z,12.23
2023-05-25T10:16:35.104Z,12.65
2023-05-25T10:19:09.110Z,12.60
2023-05-25T10:21:41.306Z,13.18
2023-05-25T10:24:19.908Z,13.05
2023-05-25T10:26:53.821Z,13.55
2023-05-25T10:29:24.872Z,15.32
2023-05-25T10:31:54.296Z,18.55
2023-05-25T10:34:23.317Z,16.63
2023-05-25T10:36:53.330Z,16.15
2023-05-25T10:39:21.797Z,16.10
2023-05-25T10:41:51.129Z,15.23
2023-05-25T10:44:19.552Z,15.53
2023-05-25T10:46:48.555Z,14.00
2023-05-25T10:49:27.169Z,14.20
2023-05-25T10:52:00.881Z,16.33
2023-05-25T10:54:32.893Z,15.15
2023-05-25T10:57:10.945Z,14.38
2023-05-25T10:59:42.568Z,14.32
2023-05-25T11:02:10.404Z,13.90
2023-05-25T11:04:38.555Z,13.77
2023-05-25T11:07:13.547Z,13.93
2023-05-25T11:09:57.422Z,14.02
2023-05-25T11:12:25.581Z,14.02
2023-05-25T11:15:16.271Z,14.57
2023-05-25T11:18:01.150Z,13.07
2023-05-25T11:20:31.156Z,13.20
2023-05-25T11:23:00.967Z,14.90
2023-05-25T11:25:44.245Z,12.55
2023-05-25T11:28:12.964Z,12.27
2023-05-25T11:30:42.924Z,11.98
2023-05-25T11:33:11.139Z,11.55
2023-05-25T11:35:39.072Z,11.80
2023-05-25T11:38:09.630Z,12.68
2023-05-25T11:40:40.274Z,12.32
2023-05-25T11:43:09.754Z,11.43
2023-05-25T11:45:39.264Z,12.15
2023-05-25T11:48:07.489Z,11.70
2023-05-25T11:50:35.393Z,11.20
2023-05-25T11:53:07.152Z,11.38
2023-05-25T11:55:40.106Z,11.88
2023-05-25T11:58:08.029Z,10.77
2023-05-25T12:00:36.086Z,10.35
2023-05-25T12:03:05.687Z,10.05
2023-05-25T12:05:39.089Z,10.27
2023-05-25T12:08:07.286Z,13.40
2023-05-25T12:10:50.723Z,14.30
2023-05-25T12:13:18.721Z,12.63
2023-05-25T12:15:47.252Z,13.00
2023-05-25T12:18:15.349Z,13.45
2023-05-25T12:20:43.530Z,12.35
2023-05-25T12:23:11.577Z,12.27
2023-05-25T12:25:50.185Z,12.85
2023-05-25T12:28:19.490Z,12.98
2023-05-25T12:30:47.497Z,12.90
2023-05-25T12:33:16.034Z,12.00
2023-05-25T12:35:48.465Z,13.38
2023-05-25T12:38:18.599Z,12.55
2023-05-25T12:40:48.096Z,13.20
2023-05-25T12:43:17.506Z,12.93
2023-05-25T12:45:46.014Z,12.13
2023-05-25T12:48:13.942Z,10.40
2023-05-25T12:50:59.488Z,10.13
2023-05-25T12:53:28.969Z,9.50
2023-05-25T12:56:04.171Z,9.18
2023-05-25T12:58:32.049Z,10.38
2023-05-25T13:01:00.152Z,9.43
2023-05-25T13:03:28.186Z,9.43
2023-05-25T13:06:02.200Z,8.75
2023-05-25T13:08:30.489Z,8.90
2023-05-25T13:10:58.329Z,7.68
2023-05-25T13:13:27.602Z,7.22
2023-05-25T13:15:55.506Z,8.07
2023-05-25T13:18:23.438Z,7.22
2023-05-25T13:20:55.201Z,6.72
2023-05-25T13:23:24.550Z,7.50
2023-05-25T13:25:52.439Z,7.78
2023-05-25T13:28:20.339Z,7.50
2023-05-25T13:30:49.760Z,7.55
2023-05-25T13:33:17.634Z,7.60
2023-05-25T13:35:58.341Z,8.23
2023-05-25T13:38:27.575Z,8.27
2023-05-25T13:40:55.464Z,6.80
2023-05-25T13:43:23.430Z,7.45
2023-05-25T13:45:52.641Z,8.07
2023-05-25T13:48:20.620Z,6.57
2023-05-25T13:50:49.338Z,6.57
2023-05-25T13:53:17.206Z,6.68
2023-05-25T13:55:45.046Z,7.35
2023-05-25T13:58:12.910Z,6.30
2023-05-25T14:00:41.147Z,6.47
2023-05-25T14:03:10.486Z,6.80
2023-05-25T14:05:38.431Z,6.80
2023-05-25T14:08:06.894Z,6.35
2023-05-25T14:10:35.193Z,5.75
2023-05-25T14:13:02.979Z,6.10
2023-05-25T14:15:30.969Z,6.45
2023-05-25T14:17:58.852Z,5.45
2023-05-25T14:20:28.913Z,6.07
2023-05-25T14:22:56.957Z,5.60
2023-05-25T14:25:24.964Z,6.18
2023-05-25T14:27:53.227Z,6.05
2023-05-25T14:30:21.205Z,5.35
2023-05-25T14:32:49.064Z,5.82
2023-05-25T14:35:17.009Z,5.90
2023-05-25T14:37:46.209Z,5.75
2023-05-25T14:40:14.886Z,6.38
2023-05-25T14:42:42.754Z,6.03
2023-05-25T14:45:12.446Z,6.28
2023-05-25T14:47:41.449Z,6.07
2023-05-25T14:50:09.769Z,5.88
2023-05-25T14:52:37.693Z,5.43
2023-05-25T14:55:07.882Z,6.07
2023-05-25T14:57:35.849Z,6.20
2023-05-25T15:00:04.404Z,5.97
2023-05-25T15:02:32.416Z,5.97
2023-05-25T15:05:00.386Z,5.65
2023-05-25T15:07:28.270Z,5.38
2023-05-25T15:09:56.359Z,5.75
2023-05-25T15:12:25.605Z,5.85
2023-05-25T15:14:53.473Z,6.85
2023-05-25T15:17:21.411Z,5.97
2023-05-25T15:19:49.196Z,6.35
2023-05-25T15:22:17.096Z,5.28
2023-05-25T15:24:46.065Z,5.72
2023-05-25T15:27:13.925Z,6.65
2023-05-25T15:29:43.164Z,7.00
2023-05-25T15:32:13.250Z,6.40
2023-05-25T15:34:41.610Z,6.32
2023-05-25T15:37:11.224Z,5.68
2023-05-25T15:39:40.227Z,6.05
2023-05-25T15:42:08.396Z,6.43
2023-05-25T15:44:36.299Z,6.68
2023-05-25T15:47:06.850Z,6.35
2023-05-25T15:49:36.800Z,6.00
2023-05-25T15:52:05.346Z,6.25
2023-05-25T15:54:33.210Z,6.55
2023-05-25T15:57:01.240Z,6.25
2023-05-25T15:59:29.179Z,6.30
2023-05-25T16:01:57.038Z,6.28
2023-05-25T16:04:26.276Z,6.00
2023-05-25T16:06:54.129Z,5.85
2023-05-25T16:09:21.946Z,5.50
2023-05-25T16:11:49.850Z,5.70
2023-05-25T16:14:17.668Z,6.38
2023-05-25T16:16:45.655Z,5.72
2023-05-25T16:19:14.188Z,5.72
2023-05-25T16:21:43.778Z,5.57
2023-05-25T16:24:11.751Z,5.47
2023-05-25T16:26:39.627Z,5.30
2023-05-25T16:29:07.510Z,5.75
2023-05-25T16:31:35.575Z,7.00
2023-05-25T16:34:03.854Z,5.57
2023-05-25T16:36:31.919Z,5.88
2023-05-25T16:39:01.189Z,5.22
2023-05-25T16:41:29.334Z,5.32
2023-05-25T16:43:57.231Z,5.60
2023-05-25T16:46:25.774Z,6.32
2023-05-25T16:48:53.639Z,5.28
2023-05-25T16:51:21.513Z,6.15
2023-05-25T16:53:50.213Z,6.53
2023-05-25T16:56:21.418Z,7.18
2023-05-25T16:58:49.337Z,6.88
2023-05-25T17:01:17.207Z,6.25
2023-05-25T17:03:45.220Z,6.30
2023-05-25T17:06:13.237Z,5.68
2023-05-25T17:08:41.081Z,7.25
2023-05-25T17:11:09.020Z,6.55
2023-05-25T17:13:38.269Z,6.53
2023-05-25T17:16:06.618Z,6.90
2023-05-25T17:18:34.690Z,6.68
2023-05-25T17:21:02.772Z,6.45
2023-05-25T17:23:30.810Z,6.90
2023-05-25T17:25:58.745Z,6.50
2023-05-25T17:28:27.694Z,6.95
2023-05-25T17:30:58.943Z,7.38
2023-05-25T17:33:27.045Z,6.93
2023-05-25T17:35:54.943Z,6.93
2023-05-25T17:38:22.880Z,6.72
2023-05-25T17:40:50.738Z,7.22
2023-05-25T17:43:18.588Z,6.47
2023-05-25T17:45:47.094Z,6.88
2023-05-25T17:48:16.856Z,6.95
2023-05-25T17:50:44.817Z,7.60
2023-05-25T17:53:12.792Z,6.60
2023-05-25T17:55:40.693Z,6.68
2023-05-25T17:58:08.604Z,6.03
2023-05-25T18:00:36.460Z,5.75
2023-05-25T18:03:04.466Z,6.35
2023-05-25T18:05:33.973Z,6.20
2023-05-25T18:08:02.020Z,6.33
2023-05-25T18:10:29.949Z,7.10
2023-05-25T18:12:57.944Z,6.55
2023-05-25T18:15:25.861Z,6.72
2023-05-25T18:17:53.817Z,7.55
2023-05-25T18:20:21.841Z,7.88
2023-05-25T18:22:51.213Z,7.38
2023-05-25T18:25:19.181Z,6.63
2023-05-25T18:27:47.851Z,7.15
2023-05-25T18:30:16.367Z,7.78
2023-05-25T18:32:44.240Z,7.07
2023-05-25T18:35:12.168Z,7.57
2023-05-25T18:37:40.153Z,7.50
2023-05-25T18:40:11.655Z,7.22
2023-05-25T18:42:39.580Z,6.75
2023-05-25T18:45:08.201Z,7.53
2023-05-25T18:47:36.578Z,8.75
2023-05-25T18:50:04.685Z,9.20
2023-05-25T18:52:32.760Z,7.40
2023-05-25T18:55:01.503Z,7.45
2023-05-25T18:57:30.782Z,7.10
2023-05-25T18:59:58.713Z,8.52
2023-05-25T19:02:26.850Z,8.15
2023-05-25T19:04:55.046Z,8.32
2023-05-25T19:07:22.984Z,8.15
2023-05-25T19:09:50.861Z,8.20
2023-05-25T19:12:18.806Z,7.80
2023-05-25T19:14:48.128Z,8.98
2023-05-25T19:17:16.053Z,7.93
2023-05-25T19:19:44.052Z,8.50
2023-05-25T19:22:11.940Z,7.00
2023-05-25T19:24:42.704Z,8.60
2023-05-25T19:27:12.288Z,8.25
2023-05-25T19:29:40.374Z,8.55
2023-05-25T19:32:09.647Z,8.45
2023-05-25T19:34:37.590Z,8.32
2023-05-25T19:37:11.630Z,8.13
2023-05-25T19:39:39.906Z,8.38
2023-05-25T19:42:07.965Z,8.70
2023-05-25T19:44:35.828Z,8.43
2023-05-25T19:47:03.802Z,8.15
2023-05-25T19:49:33.093Z,8.10
2023-05-25T19:52:01.052Z,7.97
2023-05-25T19:54:28.968Z,9.07
2023-05-25T19:56:57.243Z,9.48
2023-05-25T19:59:27.838Z,8.73
2023-05-25T20:01:56.199Z,8.77
2023-05-25T20:04:24.244Z,8.60
2023-05-25T20:06:53.987Z,8.70
2023-05-25T20:09:29.893Z,8.63
2023-05-25T20:11:58.519Z,8.73
2023-05-25T20:14:26.738Z,7.60
2023-05-25T20:16:55.695Z,8.30
2023-05-25T20:19:23.878Z,7.53
2023-05-25T20:21:53.370Z,8.10
2023-05-25T20:24:21.979Z,8.63
2023-05-25T20:26:50.194Z,9.30
2023-05-25T20:29:18.071Z,8.15
2023-05-25T20:31:46.006Z,7.80
2023-05-25T20:34:14.074Z,8.45
2023-05-25T20:36:41.926Z,7.90
2023-05-25T20:39:11.410Z,8.70
2023-05-25T20:41:39.345Z,7.57
2023-05-25T20:44:07.429Z,8.32
2023-05-25T20:46:35.576Z,8.02
2023-05-25T20:49:04.249Z,7.97
2023-05-25T20:51:32.706Z,8.43
2023-05-25T20:54:00.810Z,8.38
2023-05-25T20:56:30.050Z,7.78
2023-05-25T20:58:58.090Z,7.97
2023-05-25T21:01:26.022Z,7.57
2023-05-25T21:03:53.973Z,7.65
2023-05-25T21:06:22.559Z,8.02
2023-05-25T21:08:50.555Z,7.97
2023-05-25T21:11:18.537Z,7.82
2023-05-25T21:13:47.817Z,7.75
2023-05-25T21:16:15.870Z,7.10
2023-05-25T21:18:43.882Z,7.72
2023-05-25T21:21:11.992Z,8.23
2023-05-25T21:23:39.892Z,8.45
2023-05-25T21:26:07.877Z,8.75
2023-05-25T21:28:35.749Z,8.07
2023-05-25T21:31:05.087Z,7.60
2023-05-25T21:33:35.772Z,8.32
2023-05-25T21:36:04.059Z,7.40
2023-05-25T21:38:32.036Z,8.43
2023-05-25T21:41:00.145Z,6.80
2023-05-25T21:43:28.281Z,7.00
2023-05-25T21:45:56.140Z,6.75
2023-05-25T21:48:25.514Z,6.80
2023-05-25T21:50:54.159Z,8.30
2023-05-25T21:53:22.323Z,7.35
2023-05-25T21:55:52.769Z,6.90
2023-05-25T21:58:20.738Z,7.40
2023-05-25T22:00:48.689Z,8.15
2023-05-25T22:03:16.863Z,7.38
2023-05-25T22:05:46.609Z,8.50
2023-05-25T22:08:14.741Z,7.18
2023-05-25T22:10:42.638Z,7.45
2023-05-25T22:13:10.466Z,7.82
2023-05-25T22:15:38.340Z,6.97
2023-05-25T22:18:06.836Z,7.22
2023-05-25T22:20:38.434Z,7.53
2023-05-25T22:23:07.848Z,8.15
2023-05-25T22:25:35.813Z,8.00
2023-05-25T22:28:03.953Z,7.00
2023-05-25T22:30:31.830Z,7.15
2023-05-25T22:32:59.863Z,7.32
2023-05-25T22:35:27.820Z,7.97
2023-05-25T22:37:55.780Z,6.80
2023-05-25T22:40:24.915Z,8.00
2023-05-25T22:42:52.746Z,7.30
2023-05-25T22:45:22.096Z,7.40
2023-05-25T22:47:50.076Z,7.77
2023-05-25T22:50:17.912Z,7.25
2023-05-25T22:52:46.089Z,6.38
2023-05-25T22:55:14.087Z,6.80
2023-05-25T22:57:43.426Z,6.35
2023-05-25T23:00:12.170Z,7.30
2023-05-25T23:02:40.168Z,7.00
2023-05-25T23:05:09.706Z,6.93
2023-05-25T23:07:37.611Z,5.72
2023-05-25T23:10:06.101Z,6.40
2023-05-25T23:12:33.962Z,6.57
2023-05-25T23:15:03.212Z,6.82
2023-05-25T23:17:31.930Z,7.03
2023-05-25T23:19:59.801Z,6.85
2023-05-25T23:22:27.619Z,5.93
2023-05-25T23:24:55.491Z,7.40
2023-05-25T23:27:23.338Z,6.18
2023-05-25T23:29:51.244Z,6.97
2023-05-25T23:32:21.012Z,7.28
2023-05-25T23:34:48.883Z,7.65
2023-05-25T23:37:16.740Z,5.88
2023-05-25T23:39:44.568Z,6.53
2023-05-25T23:42:15.304Z,6.88
2023-05-25T23:44:43.200Z,6.75
2023-05-25T23:47:11.050Z,6.72
2023-05-25T23:49:40.616Z,6.82
2023-05-25T23:52:08.522Z,7.68
2023-05-25T23:54:36.378Z,7.22
2023-05-25T23:57:04.444Z,6.20
2023-05-25T23:59:32.251Z,6.70
